Time,TemperatureF,DewpointF,PressureIn,WindDirection,WindDirectionDegrees,WindSpeedMPH,WindSpeedGustMPH,Humidity,HourlyPrecipIn,Conditions,Clouds,dailyrainin,SoftwareType,DateUTC
2013-12-31 00:02:00,2.8,-1.0,29.22,SSE,158,0.0,0.0,84,0.00,,,0.00,WUHU216HW,2013-12-31 09:02:00,
2013-12-31 00:07:00,2.8,-1.0,29.22,SSE,158,0.0,0.0,84,0.00,,,0.00,WUHU216HW,2013-12-31 09:07:00,
2013-12-31 00:12:00,2.8,-1.0,29.22,SSE,158,0.0,0.0,84,0.00,,,0.00,WUHU216HW,2013-12-31 09:12:00,
2013-12-31 00:17:00,2.8,-1.0,29.22,SSE,158,0.0,0.0,84,0.00,,,0.00,WUHU216HW,2013-12-31 09:17:00,
2013-12-31 00:22:00,2.8,-1.0,29.22,SSE,158,0.0,0.0,84,0.00,,,0.00,WUHU216HW,2013-12-31 09:22:00,
2013-12-31 00:27:00,2.8,-1.0,29.22,SSE,158,0.0,0.0,84,0.00,,,0.00,WUHU216HW,2013-12-31 09:27:00,
2013-12-31 00:32:00,2.6,-1.1,29.23,SSE,158,0.0,0.0,84,0.00,,,0.00,WUHU216HW,2013-12-31 09:32:00,
2013-12-31 00:37:00,2.4,-1.3,29.22,SSE,158,0.0,0.0,84,0.00,,,0.00,WUHU216HW,2013-12-31 09:37:00,
2013-12-31 00:42:00,2.4,-1.3,29.22,SSE,158,0.0,0.0,84,0.00,,,0.00,WUHU216HW,2013-12-31 09:42:00,
2013-12-31 00:47:00,2.4,-1.3,29.22,SSE,158,0.0,0.0,84,0.00,,,0.00,WUHU216HW,2013-12-31 09:47:00,
2013-12-31 00:52:00,2.4,-1.3,29.23,SSE,158,0.0,0.0,84,0.00,,,0.00,WUHU216HW,2013-12-31 09:52:00,
2013-12-31 00:57:00,2.4,-1.3,29.23,SSE,158,0.0,0.0,84,0.00,,,0.00,WUHU216HW,2013-12-31 09:57:00,
2013-12-31 01:02:00,2.3,-1.5,29.23,SSE,158,0.0,0.0,84,0.00,,,0.00,WUHU216HW,2013-12-31 10:02:00,
2013-12-31 01:07:00,2.3,-1.5,29.23,SSE,158,0.0,0.0,84,0.00,,,0.00,WUHU216HW,2013-12-31 10:07:00,
2013-12-31 01:12:00,2.1,-1.7,29.23,SSE,158,0.0,0.0,84,0.00,,,0.00,WUHU216HW,2013-12-31 10:12:00,
2013-12-31 01:17:00,2.1,-1.7,29.23,SSE,158,0.0,0.0,84,0.00,,,0.00,WUHU216HW,2013-12-31 10:17:00,
2013-12-31 01:22:00,1.9,-1.9,29.23,SSE,158,0.0,0.0,84,0.00,,,0.00,WUHU216HW,2013-12-31 10:22:00,
2013-12-31 01:27:00,2.1,-1.7,29.23,SSE,158,0.0,0.0,84,0.00,,,0.00,WUHU216HW,2013-12-31 10:27:00,
2013-12-31 01:32:00,2.1,-1.7,29.23,SSE,158,0.0,0.0,84,0.00,,,0.00,WUHU216HW,2013-12-31 10:32:00,
2013-12-31 01:37:00,2.1,-1.7,29.23,SSE,158,0.0,0.0,84,0.00,,,0.00,WUHU216HW,2013-12-31 10:37:00,
2013-12-31 01:42:00,2.3,-1.5,29.23,SSE,158,0.0,0.0,84,0.00,,,0.00,WUHU216HW,2013-12-31 10:42:00,
2013-12-31 01:47:00,2.3,-1.5,29.23,SSE,158,0.0,0.0,84,0.00,,,0.00,WUHU216HW,2013-12-31 10:47:00,
2013-12-31 01:52:00,2.4,-1.3,29.24,SSE,158,0.0,0.0,84,0.00,,,0.00,WUHU216HW,2013-12-31 10:52:00,
2013-12-31 01:57:00,2.4,-1.3,29.24,SSE,158,0.0,0.0,84,0.00,,,0.00,WUHU216HW,2013-12-31 10:57:00,
2013-12-31 02:02:00,2.4,-1.3,29.24,SSE,158,0.0,0.0,84,0.00,,,0.00,WUHU216HW,2013-12-31 11:02:00,
2013-12-31 02:07:00,2.3,-1.5,29.24,SSE,158,0.0,0.0,84,0.00,,,0.00,WUHU216HW,2013-12-31 11:07:00,
2013-12-31 02:12:00,2.1,-1.7,29.24,SSE,158,0.0,0.0,84,0.00,,,0.00,WUHU216HW,2013-12-31 11:12:00,
2013-12-31 02:17:00,2.1,-1.7,29.24,SSE,158,0.0,0.0,84,0.00,,,0.00,WUHU216HW,2013-12-31 11:17:00,
2013-12-31 02:22:00,1.9,-1.9,29.24,SSE,158,0.0,0.0,84,0.00,,,0.00,WUHU216HW,2013-12-31 11:22:00,
2013-12-31 02:27:00,2.1,-1.7,29.24,SSE,158,0.0,0.0,84,0.00,,,0.00,WUHU216HW,2013-12-31 11:27:00,
2013-12-31 02:32:00,1.9,-1.9,29.24,SSE,158,0.0,0.0,84,0.00,,,0.00,WUHU216HW,2013-12-31 11:32:00,
2013-12-31 02:37:00,2.1,-1.7,29.24,SSE,158,0.0,0.0,84,0.00,,,0.00,WUHU216HW,2013-12-31 11:37:00,
2013-12-31 02:42:00,2.1,-1.7,29.24,SSE,158,0.0,0.0,84,0.00,,,0.00,WUHU216HW,2013-12-31 11:42:00,
2013-12-31 02:47:00,2.3,-1.5,29.24,SSE,158,0.0,0.0,84,0.00,,,0.00,WUHU216HW,2013-12-31 11:47:00,
2013-12-31 02:52:00,2.4,-1.3,29.24,SSE,158,0.0,0.0,84,0.00,,,0.00,WUHU216HW,2013-12-31 11:52:00,
2013-12-31 02:57:00,2.8,-1.0,29.24,SSE,158,0.0,0.0,84,0.00,,,0.00,WUHU216HW,2013-12-31 11:57:00,
2013-12-31 03:02:00,2.8,-0.7,29.24,SSE,158,0.0,0.0,85,0.00,,,0.00,WUHU216HW,2013-12-31 12:02:00,
2013-12-31 03:07:00,3.0,-0.5,29.24,SSE,158,0.0,0.0,85,0.00,,,0.00,WUHU216HW,2013-12-31 12:07:00,
2013-12-31 03:12:00,3.0,-0.5,29.24,SSE,158,0.0,0.0,85,0.00,,,0.00,WUHU216HW,2013-12-31 12:12:00,
2013-12-31 03:17:00,3.0,-0.5,29.24,SSE,158,0.0,0.0,85,0.00,,,0.00,WUHU216HW,2013-12-31 12:17:00,
2013-12-31 03:22:00,3.3,-0.2,29.24,SSE,158,0.0,0.0,85,0.00,,,0.00,WUHU216HW,2013-12-31 12:22:00,
2013-12-31 03:27:00,3.3,-0.2,29.24,SSE,158,0.0,0.0,85,0.00,,,0.00,WUHU216HW,2013-12-31 12:27:00,
2013-12-31 03:32:00,3.5,0.0,29.24,SSE,158,0.0,0.0,85,0.00,,,0.00,WUHU216HW,2013-12-31 12:32:00,
2013-12-31 03:37:00,3.7,0.1,29.24,SSE,158,0.0,0.0,85,0.00,,,0.00,WUHU216HW,2013-12-31 12:37:00,
2013-12-31 03:42:00,3.7,0.1,29.24,SSE,158,0.0,0.0,85,0.00,,,0.00,WUHU216HW,2013-12-31 12:42:00,
2013-12-31 03:47:00,3.9,0.3,29.24,SSE,158,0.0,0.0,85,0.00,,,0.00,WUHU216HW,2013-12-31 12:47:00,
2013-12-31 03:52:00,4.1,0.5,29.24,SSE,158,0.0,0.0,85,0.00,,,0.00,WUHU216HW,2013-12-31 12:52:00,
2013-12-31 03:57:00,4.2,0.6,29.24,SSE,158,0.0,0.0,85,0.00,,,0.00,WUHU216HW,2013-12-31 12:57:00,
2013-12-31 04:02:00,4.2,0.6,29.24,SSE,158,0.0,0.0,85,0.00,,,0.00,WUHU216HW,2013-12-31 13:02:00,
2013-12-31 04:07:00,4.4,0.8,29.23,SSE,158,0.0,0.0,85,0.00,,,0.00,WUHU216HW,2013-12-31 13:07:00,
2013-12-31 04:12:00,4.6,1.0,29.24,SSE,158,0.0,0.0,85,0.00,,,0.00,WUHU216HW,2013-12-31 13:12:00,
2013-12-31 04:17:00,4.8,1.2,29.24,SSE,158,0.0,0.0,85,0.00,,,0.00,WUHU216HW,2013-12-31 13:17:00,
2013-12-31 04:22:00,4.8,1.2,29.24,SSE,158,0.0,0.0,85,0.00,,,0.00,WUHU216HW,2013-12-31 13:22:00,
2013-12-31 04:27:00,4.8,1.2,29.24,SSE,158,0.0,0.0,85,0.00,,,0.00,WUHU216HW,2013-12-31 13:27:00,
2013-12-31 04:32:00,4.8,1.2,29.24,SSE,158,0.0,0.0,85,0.00,,,0.00,WUHU216HW,2013-12-31 13:32:00,
2013-12-31 04:37:00,4.8,1.2,29.24,SSE,158,0.0,0.0,85,0.00,,,0.00,WUHU216HW,2013-12-31 13:37:00,
2013-12-31 04:42:00,4.8,1.2,29.24,SSE,158,0.0,0.0,85,0.00,,,0.00,WUHU216HW,2013-12-31 13:42:00,
2013-12-31 04:47:00,4.8,1.2,29.24,SSE,158,0.0,0.0,85,0.00,,,0.00,WUHU216HW,2013-12-31 13:47:00,
2013-12-31 04:52:00,4.6,1.0,29.23,SSE,158,0.0,0.0,85,0.00,,,0.00,WUHU216HW,2013-12-31 13:52:00,
2013-12-31 04:57:00,4.6,1.0,29.23,SSE,158,0.0,0.0,85,0.00,,,0.00,WUHU216HW,2013-12-31 13:57:00,
2013-12-31 05:02:00,4.6,1.0,29.23,SSE,158,0.0,0.0,85,0.00,,,0.00,WUHU216HW,2013-12-31 14:02:00,
2013-12-31 05:07:00,4.6,1.0,29.23,SSE,158,0.0,0.0,85,0.00,,,0.00,WUHU216HW,2013-12-31 14:07:00,
2013-12-31 05:12:00,4.4,0.8,29.23,SSE,158,0.0,0.0,85,0.00,,,0.00,WUHU216HW,2013-12-31 14:12:00,
2013-12-31 05:17:00,4.2,0.6,29.22,SSE,158,0.0,0.0,85,0.00,,,0.00,WUHU216HW,2013-12-31 14:17:00,
2013-12-31 05:22:00,4.1,0.5,29.23,SSE,158,0.0,0.0,85,0.00,,,0.00,WUHU216HW,2013-12-31 14:22:00,
2013-12-31 05:27:00,4.1,0.5,29.23,SSE,158,0.0,0.0,85,0.00,,,0.00,WUHU216HW,2013-12-31 14:27:00,
2013-12-31 05:32:00,3.9,0.0,29.23,SSE,158,0.0,0.0,84,0.00,,,0.00,WUHU216HW,2013-12-31 14:32:00,
2013-12-31 05:37:00,3.9,0.0,29.23,SSE,158,0.0,0.0,84,0.00,,,0.00,WUHU216HW,2013-12-31 14:37:00,
2013-12-31 05:42:00,3.7,-0.1,29.23,SSE,158,0.0,0.0,84,0.00,,,0.00,WUHU216HW,2013-12-31 14:42:00,
2013-12-31 05:47:00,3.3,-0.4,29.23,SSE,158,0.0,0.0,84,0.00,,,0.00,WUHU216HW,2013-12-31 14:47:00,
2013-12-31 05:52:00,3.3,-0.4,29.23,SSE,158,0.0,0.0,84,0.00,,,0.00,WUHU216HW,2013-12-31 14:52:00,
2013-12-31 05:57:00,3.0,-0.8,29.23,SSE,158,0.0,0.0,84,0.00,,,0.00,WUHU216HW,2013-12-31 14:57:00,
2013-12-31 06:02:00,3.0,-0.8,29.23,SSE,158,0.0,0.0,84,0.00,,,0.00,WUHU216HW,2013-12-31 15:02:00,
2013-12-31 06:07:00,3.0,-0.8,29.23,SSE,158,0.0,0.0,84,0.00,,,0.00,WUHU216HW,2013-12-31 15:07:00,
2013-12-31 06:12:00,2.8,-1.0,29.23,SSE,158,0.0,0.0,84,0.00,,,0.00,WUHU216HW,2013-12-31 15:12:00,
2013-12-31 06:17:00,2.8,-1.0,29.23,SSE,158,0.0,0.0,84,0.00,,,0.00,WUHU216HW,2013-12-31 15:17:00,
2013-12-31 06:22:00,2.8,-1.0,29.23,SSE,158,0.0,0.0,84,0.00,,,0.00,WUHU216HW,2013-12-31 15:22:00,
2013-12-31 06:27:00,2.4,-1.3,29.24,SSE,158,0.0,0.0,84,0.00,,,0.00,WUHU216HW,2013-12-31 15:27:00,
2013-12-31 06:32:00,2.4,-1.3,29.23,SSE,158,0.0,0.0,84,0.00,,,0.00,WUHU216HW,2013-12-31 15:32:00,
2013-12-31 06:37:00,2.3,-1.5,29.23,SSE,158,0.0,0.0,84,0.00,,,0.00,WUHU216HW,2013-12-31 15:37:00,
2013-12-31 06:42:00,2.3,-1.5,29.23,SSE,158,0.0,0.0,84,0.00,,,0.00,WUHU216HW,2013-12-31 15:42:00,
2013-12-31 06:47:00,2.1,-1.7,29.23,SSE,158,0.0,0.0,84,0.00,,,0.00,WUHU216HW,2013-12-31 15:47:00,
2013-12-31 06:52:00,2.1,-1.7,29.23,SSE,158,0.0,0.0,84,0.00,,,0.00,WUHU216HW,2013-12-31 15:52:00,
2013-12-31 06:57:00,1.9,-1.9,29.22,SSE,158,0.0,0.0,84,0.00,,,0.00,WUHU216HW,2013-12-31 15:57:00,
2013-12-31 07:02:00,1.9,-1.9,29.23,SSE,158,0.0,0.0,84,0.00,,,0.00,WUHU216HW,2013-12-31 16:02:00,
2013-12-31 07:07:00,1.9,-1.9,29.22,SSE,158,0.0,0.0,84,0.00,,,0.00,WUHU216HW,2013-12-31 16:07:00,
2013-12-31 07:12:00,1.9,-1.9,29.22,SSE,158,0.0,0.0,84,0.00,,,0.00,WUHU216HW,2013-12-31 16:12:00,
2013-12-31 07:17:00,1.7,-2.0,29.21,SSE,158,0.0,0.0,84,0.00,,,0.00,WUHU216HW,2013-12-31 16:17:00,
2013-12-31 07:22:00,1.9,-1.9,29.21,SSE,158,0.0,0.0,84,0.00,,,0.00,WUHU216HW,2013-12-31 16:22:00,
2013-12-31 07:27:00,1.9,-1.9,29.21,SSE,158,0.0,0.0,84,0.00,,,0.00,WUHU216HW,2013-12-31 16:27:00,
2013-12-31 07:32:00,2.4,-1.3,29.21,SSE,158,0.0,0.0,84,0.00,,,0.00,WUHU216HW,2013-12-31 16:32:00,
2013-12-31 07:37:00,2.8,-1.0,29.21,SSE,158,0.0,0.0,84,0.00,,,0.00,WUHU216HW,2013-12-31 16:37:00,
2013-12-31 07:42:00,3.0,-0.8,29.21,SSE,158,0.0,0.0,84,0.00,,,0.00,WUHU216HW,2013-12-31 16:42:00,
2013-12-31 07:47:00,3.5,0.0,29.21,SSE,158,0.0,0.0,85,0.00,,,0.00,WUHU216HW,2013-12-31 16:47:00,
2013-12-31 07:52:00,3.9,0.3,29.21,SSE,158,0.0,0.0,85,0.00,,,0.00,WUHU216HW,2013-12-31 16:52:00,
2013-12-31 07:57:00,4.4,0.8,29.21,SSE,158,0.0,0.0,85,0.00,,,0.00,WUHU216HW,2013-12-31 16:57:00,
2013-12-31 08:02:00,5.3,1.7,29.21,SSE,158,0.0,0.0,85,0.00,,,0.00,WUHU216HW,2013-12-31 17:02:00,
2013-12-31 08:07:00,5.7,2.1,29.21,SSE,158,0.0,0.0,85,0.00,,,0.00,WUHU216HW,2013-12-31 17:07:00,
2013-12-31 08:12:00,6.0,2.7,29.21,SSE,158,0.0,0.0,86,0.00,,,0.00,WUHU216HW,2013-12-31 17:12:00,
2013-12-31 08:17:00,6.4,3.0,29.20,SSE,158,0.0,0.0,86,0.00,,,0.00,WUHU216HW,2013-12-31 17:17:00,
2013-12-31 08:22:00,6.6,3.2,29.20,SSE,158,0.0,0.0,86,0.00,,,0.00,WUHU216HW,2013-12-31 17:22:00,
2013-12-31 08:27:00,7.1,3.8,29.20,SSE,158,0.0,0.0,86,0.00,,,0.00,WUHU216HW,2013-12-31 17:27:00,
2013-12-31 08:32:00,7.8,4.5,29.20,SSE,158,0.0,0.0,86,0.00,,,0.00,WUHU216HW,2013-12-31 17:32:00,
2013-12-31 08:37:00,8.4,5.0,29.20,SSE,158,0.0,0.0,86,0.00,,,0.00,WUHU216HW,2013-12-31 17:37:00,
2013-12-31 08:42:00,8.9,5.8,29.20,SSE,158,0.0,0.0,87,0.00,,,0.00,WUHU216HW,2013-12-31 17:42:00,
2013-12-31 08:47:00,9.6,6.5,29.20,SSE,158,0.0,0.0,87,0.00,,,0.00,WUHU216HW,2013-12-31 17:47:00,
2013-12-31 08:52:00,10.0,6.8,29.19,SSE,158,0.0,0.0,87,0.00,,,0.00,WUHU216HW,2013-12-31 17:52:00,
2013-12-31 08:57:00,10.5,7.4,29.19,SSE,158,0.0,0.0,87,0.00,,,0.00,WUHU216HW,2013-12-31 17:57:00,
2013-12-31 09:03:00,10.9,7.7,29.19,SSE,158,0.0,0.0,87,0.00,,,0.00,WUHU216HW,2013-12-31 18:03:00,
2013-12-31 09:08:00,11.3,8.1,29.19,SSE,158,0.0,0.0,87,0.00,,,0.00,WUHU216HW,2013-12-31 18:08:00,
2013-12-31 09:13:00,11.6,8.5,29.19,SSE,158,0.0,0.0,87,0.00,,,0.00,WUHU216HW,2013-12-31 18:13:00,
2013-12-31 09:18:00,12.0,9.1,29.19,SSE,158,0.0,0.0,88,0.00,,,0.00,WUHU216HW,2013-12-31 18:18:00,
2013-12-31 09:23:00,12.2,9.3,29.19,SSE,158,0.0,0.0,88,0.00,,,0.00,WUHU216HW,2013-12-31 18:23:00,
2013-12-31 09:28:00,12.3,9.5,29.19,SSE,158,0.0,0.0,88,0.00,,,0.00,WUHU216HW,2013-12-31 18:28:00,
2013-12-31 09:33:00,12.5,9.6,29.19,SSE,158,0.0,0.0,88,0.00,,,0.00,WUHU216HW,2013-12-31 18:33:00,
2013-12-31 09:38:00,12.7,9.8,29.20,SSE,158,0.0,0.0,88,0.00,,,0.00,WUHU216HW,2013-12-31 18:38:00,
2013-12-31 09:43:00,12.7,9.8,29.19,SSE,158,0.0,0.0,88,0.00,,,0.00,WUHU216HW,2013-12-31 18:43:00,
2013-12-31 09:48:00,13.1,10.2,29.19,SSE,158,0.0,0.0,88,0.00,,,0.00,WUHU216HW,2013-12-31 18:48:00,
2013-12-31 09:55:00,13.2,10.4,29.19,SSE,158,0.0,0.0,88,0.00,,,0.00,WUHU216HW,2013-12-31 18:55:00,
2013-12-31 10:00:00,13.2,10.4,29.19,SSE,158,0.0,0.0,88,0.00,,,0.00,WUHU216HW,2013-12-31 19:00:00,
2013-12-31 10:05:00,13.6,10.7,29.19,SSE,158,0.0,0.0,88,0.00,,,0.00,WUHU216HW,2013-12-31 19:05:00,
2013-12-31 10:10:00,13.6,10.7,29.18,SSE,158,0.0,0.0,88,0.00,,,0.00,WUHU216HW,2013-12-31 19:10:00,
2013-12-31 10:15:00,13.8,10.9,29.18,SSE,158,0.0,0.0,88,0.00,,,0.00,WUHU216HW,2013-12-31 19:15:00,
2013-12-31 10:20:00,14.1,11.2,29.18,SSE,158,0.0,0.0,88,0.00,,,0.00,WUHU216HW,2013-12-31 19:20:00,
2013-12-31 10:25:00,14.3,11.6,29.18,SSE,158,0.0,0.0,88,0.00,,,0.00,WUHU216HW,2013-12-31 19:25:00,
2013-12-31 10:30:00,14.5,11.6,29.17,SSE,158,0.0,0.0,88,0.00,,,0.00,WUHU216HW,2013-12-31 19:30:00,
2013-12-31 10:35:00,14.7,11.7,29.17,SSE,158,0.0,0.0,88,0.00,,,0.00,WUHU216HW,2013-12-31 19:35:00,
2013-12-31 10:40:00,14.9,11.9,29.17,SSE,158,0.0,0.0,88,0.00,,,0.00,WUHU216HW,2013-12-31 19:40:00,
2013-12-31 10:45:00,15.2,12.2,29.17,SSE,158,0.0,0.0,88,0.00,,,0.00,WUHU216HW,2013-12-31 19:45:00,
2013-12-31 10:50:00,15.4,12.6,29.17,SSE,158,0.0,0.0,89,0.00,,,0.00,WUHU216HW,2013-12-31 19:50:00,
2013-12-31 10:55:00,15.6,12.8,29.17,SSE,158,0.0,0.0,89,0.00,,,0.00,WUHU216HW,2013-12-31 19:55:00,
2013-12-31 11:00:00,15.8,13.0,29.18,SSE,158,0.0,0.0,89,0.00,,,0.00,WUHU216HW,2013-12-31 20:00:00,
2013-12-31 11:05:00,15.9,13.1,29.18,SSE,158,0.0,0.0,89,0.00,,,0.00,WUHU216HW,2013-12-31 20:05:00,
2013-12-31 11:10:00,16.1,13.1,29.17,SSE,158,0.0,0.0,89,0.00,,,0.00,WUHU216HW,2013-12-31 20:10:00,
2013-12-31 11:15:00,16.3,13.5,29.17,SSE,158,0.0,0.0,89,0.00,,,0.00,WUHU216HW,2013-12-31 20:15:00,
2013-12-31 11:20:00,16.5,13.7,29.16,SSE,158,0.0,0.0,89,0.00,,,0.00,WUHU216HW,2013-12-31 20:20:00,
2013-12-31 11:25:00,16.8,13.9,29.16,SSE,158,0.0,0.0,89,0.00,,,0.00,WUHU216HW,2013-12-31 20:25:00,
2013-12-31 11:30:00,16.8,14.0,29.16,SSE,158,0.0,0.0,89,0.00,,,0.00,WUHU216HW,2013-12-31 20:30:00,
2013-12-31 11:35:00,17.2,14.4,29.16,SSE,158,0.0,0.0,89,0.00,,,0.00,WUHU216HW,2013-12-31 20:35:00,
2013-12-31 11:40:00,17.2,14.4,29.15,SSE,158,0.0,0.0,89,0.00,,,0.00,WUHU216HW,2013-12-31 20:40:00,
2013-12-31 11:45:00,17.4,14.6,29.16,SSE,158,0.0,0.0,89,0.00,,,0.00,WUHU216HW,2013-12-31 20:45:00,
2013-12-31 11:50:00,17.7,14.9,29.15,SSE,158,0.0,0.0,89,0.00,,,0.00,WUHU216HW,2013-12-31 20:50:00,
2013-12-31 11:55:00,18.1,15.3,29.15,SSE,158,0.0,0.0,89,0.00,,,0.00,WUHU216HW,2013-12-31 20:55:00,
2013-12-31 12:00:00,18.3,15.5,29.15,SSE,158,0.0,0.0,89,0.00,,,0.00,WUHU216HW,2013-12-31 21:00:00,
2013-12-31 12:05:00,18.5,15.7,29.15,SSE,158,0.0,0.0,89,0.00,,,0.00,WUHU216HW,2013-12-31 21:05:00,
2013-12-31 12:10:00,18.8,16.0,29.14,SSE,158,0.0,0.0,89,0.00,,,0.00,WUHU216HW,2013-12-31 21:10:00,
2013-12-31 12:15:00,19.0,16.2,29.14,SSE,158,0.0,0.0,89,0.00,,,0.00,WUHU216HW,2013-12-31 21:15:00,
2013-12-31 12:20:00,19.0,16.5,29.13,SSE,158,0.0,0.0,90,0.00,,,0.00,WUHU216HW,2013-12-31 21:20:00,
2013-12-31 12:25:00,19.4,16.8,29.12,SSE,158,0.0,0.0,90,0.00,,,0.00,WUHU216HW,2013-12-31 21:25:00,
2013-12-31 12:30:00,19.5,17.0,29.12,SSE,158,0.0,0.0,90,0.00,,,0.00,WUHU216HW,2013-12-31 21:30:00,
2013-12-31 12:35:00,19.9,17.4,29.12,SSE,158,0.0,0.0,90,0.00,,,0.00,WUHU216HW,2013-12-31 21:35:00,
2013-12-31 12:40:00,20.1,17.6,29.11,SSE,158,0.0,0.0,90,0.00,,,0.00,WUHU216HW,2013-12-31 21:40:00,
2013-12-31 12:45:00,20.3,17.7,29.11,SSE,158,0.0,0.0,90,0.00,,,0.00,WUHU216HW,2013-12-31 21:45:00,
2013-12-31 12:50:00,20.4,17.9,29.10,SSE,158,0.0,0.0,90,0.00,,,0.00,WUHU216HW,2013-12-31 21:50:00,
2013-12-31 12:55:00,20.4,17.9,29.10,SSE,158,0.0,0.0,90,0.00,,,0.00,WUHU216HW,2013-12-31 21:55:00,
2013-12-31 13:00:00,20.4,17.9,29.10,SSE,158,0.0,0.0,90,0.00,,,0.00,WUHU216HW,2013-12-31 22:00:00,
2013-12-31 13:05:00,20.8,18.3,29.09,SSE,158,0.0,0.0,90,0.00,,,0.00,WUHU216HW,2013-12-31 22:05:00,
2013-12-31 13:10:00,21.0,18.5,29.08,SSE,158,0.0,0.0,90,0.00,,,0.00,WUHU216HW,2013-12-31 22:10:00,
2013-12-31 13:15:00,21.3,18.8,29.08,SSE,158,0.0,0.0,90,0.00,,,0.00,WUHU216HW,2013-12-31 22:15:00,
2013-12-31 13:20:00,21.5,19.0,29.08,SSE,158,0.0,0.0,90,0.00,,,0.00,WUHU216HW,2013-12-31 22:20:00,
2013-12-31 13:30:00,21.7,19.2,29.08,SSE,158,0.0,0.0,90,0.00,,,0.00,WUHU216HW,2013-12-31 22:30:00,
2013-12-31 13:36:00,21.9,19.4,29.08,SSE,158,0.0,0.0,90,0.00,,,0.00,WUHU216HW,2013-12-31 22:36:00,
2013-12-31 13:41:00,21.9,19.4,29.07,SSE,158,0.0,0.0,90,0.00,,,0.00,WUHU216HW,2013-12-31 22:41:00,
2013-12-31 13:46:00,21.9,19.4,29.06,SSE,158,0.0,0.0,90,0.00,,,0.00,WUHU216HW,2013-12-31 22:46:00,
2013-12-31 13:51:00,22.1,19.5,29.06,SSE,158,0.0,0.0,90,0.00,,,0.00,WUHU216HW,2013-12-31 22:51:00,
2013-12-31 13:56:00,22.1,19.5,29.06,SSE,158,0.0,0.0,90,0.00,,,0.00,WUHU216HW,2013-12-31 22:56:00,
2013-12-31 14:01:00,22.2,19.7,29.06,SSE,158,0.0,0.0,90,0.00,,,0.00,WUHU216HW,2013-12-31 23:01:00,
2013-12-31 14:06:00,22.6,20.1,29.05,SSE,158,0.0,0.0,90,0.00,,,0.00,WUHU216HW,2013-12-31 23:06:00,
2013-12-31 14:11:00,22.6,20.1,29.05,SSE,158,0.0,0.0,90,0.00,,,0.00,WUHU216HW,2013-12-31 23:11:00,
2013-12-31 14:16:00,22.8,20.3,29.05,SSE,158,0.0,0.0,90,0.00,,,0.00,WUHU216HW,2013-12-31 23:16:00,
2013-12-31 14:21:00,22.8,20.3,29.04,SSE,158,0.0,0.0,90,0.00,,,0.00,WUHU216HW,2013-12-31 23:21:00,
2013-12-31 14:26:00,23.0,20.4,29.03,SSE,158,0.0,0.0,90,0.00,,,0.00,WUHU216HW,2013-12-31 23:26:00,
2013-12-31 14:31:00,23.1,20.6,29.03,SSE,158,0.0,0.0,90,0.00,,,0.00,WUHU216HW,2013-12-31 23:31:00,
2013-12-31 14:36:00,23.3,20.8,29.04,SSE,158,0.0,0.0,90,0.00,,,0.00,WUHU216HW,2013-12-31 23:36:00,
2013-12-31 14:41:00,23.5,21.0,29.03,SSE,158,0.0,0.0,90,0.00,,,0.00,WUHU216HW,2013-12-31 23:41:00,
2013-12-31 14:46:00,23.5,21.0,29.02,SSE,158,0.0,0.0,90,0.00,,,0.00,WUHU216HW,2013-12-31 23:46:00,
2013-12-31 14:51:00,23.7,21.4,29.02,SSE,158,0.0,0.0,91,0.00,,,0.00,WUHU216HW,2013-12-31 23:51:00,
2013-12-31 14:56:00,23.9,21.6,29.02,SSE,158,0.0,0.0,91,0.00,,,0.00,WUHU216HW,2013-12-31 23:56:00,
2013-12-31 15:01:00,23.9,21.6,29.02,SSE,158,0.0,0.0,91,0.00,,,0.00,WUHU216HW,2014-01-01 00:01:00,
2013-12-31 15:06:00,24.0,21.8,29.02,SSE,158,0.0,0.0,91,0.00,,,0.00,WUHU216HW,2014-01-01 00:06:00,
2013-12-31 15:11:00,24.0,21.8,29.01,SSE,158,0.0,0.0,91,0.00,,,0.00,WUHU216HW,2014-01-01 00:11:00,
2013-12-31 15:16:00,24.0,21.8,29.01,SSE,158,0.0,0.0,91,0.00,,,0.00,WUHU216HW,2014-01-01 00:16:00,
2013-12-31 15:25:00,24.0,21.8,29.01,SSE,158,0.0,0.0,91,0.00,,,0.00,WUHU216HW,2014-01-01 00:25:00,
2013-12-31 15:35:00,24.4,22.1,29.00,SSE,158,0.0,0.0,91,0.00,,,0.00,WUHU216HW,2014-01-01 00:35:00,
2013-12-31 15:40:00,24.4,22.1,28.99,SSE,158,0.0,0.0,91,0.00,,,0.00,WUHU216HW,2014-01-01 00:40:00,
2013-12-31 15:45:00,24.6,22.3,28.99,SSE,158,0.0,0.0,91,0.00,,,0.00,WUHU216HW,2014-01-01 00:45:00,
2013-12-31 15:50:00,24.6,22.3,28.99,SSE,158,0.0,0.0,91,0.00,,,0.00,WUHU216HW,2014-01-01 00:50:00,
2013-12-31 15:55:00,24.6,22.3,28.99,SSE,158,0.0,0.0,91,0.00,,,0.00,WUHU216HW,2014-01-01 00:55:00,
2013-12-31 16:00:00,24.6,22.3,28.98,SSE,158,0.0,0.0,91,0.00,,,0.00,WUHU216HW,2014-01-01 01:00:00,
2013-12-31 16:05:00,24.6,22.3,28.98,SSE,158,0.0,0.0,91,0.00,,,0.00,WUHU216HW,2014-01-01 01:05:00,
2013-12-31 16:10:00,24.6,22.3,28.97,SSE,158,0.0,0.0,91,0.00,,,0.00,WUHU216HW,2014-01-01 01:10:00,
2013-12-31 16:15:00,24.6,22.3,28.97,SSE,158,0.0,0.0,91,0.00,,,0.00,WUHU216HW,2014-01-01 01:15:00,
2013-12-31 16:20:00,24.8,22.5,28.97,SSE,158,0.0,0.0,91,0.00,,,0.00,WUHU216HW,2014-01-01 01:20:00,
2013-12-31 16:25:00,24.9,22.7,28.97,SSE,158,0.0,0.0,91,0.00,,,0.00,WUHU216HW,2014-01-01 01:25:00,
2013-12-31 16:30:00,24.9,22.7,28.97,SSE,158,0.0,0.0,91,0.00,,,0.00,WUHU216HW,2014-01-01 01:30:00,
2013-12-31 16:35:00,24.8,22.5,28.97,SSE,158,0.0,0.0,91,0.00,,,0.00,WUHU216HW,2014-01-01 01:35:00,
2013-12-31 16:40:00,24.6,22.3,28.96,SSE,158,0.0,0.0,91,0.00,,,0.00,WUHU216HW,2014-01-01 01:40:00,
2013-12-31 16:45:00,24.6,22.3,28.96,SSE,158,0.0,0.0,91,0.00,,,0.00,WUHU216HW,2014-01-01 01:45:00,
2013-12-31 16:50:00,24.6,22.3,28.96,SSE,158,0.0,0.0,91,0.00,,,0.00,WUHU216HW,2014-01-01 01:50:00,
2013-12-31 16:55:00,24.6,22.3,28.95,SSE,158,0.0,0.0,91,0.00,,,0.00,WUHU216HW,2014-01-01 01:55:00,
2013-12-31 17:00:00,24.6,22.3,28.95,SSE,158,0.0,0.0,91,0.00,,,0.00,WUHU216HW,2014-01-01 02:00:00,
2013-12-31 17:06:00,24.6,22.3,28.95,SSE,158,0.0,0.0,91,0.00,,,0.00,WUHU216HW,2014-01-01 02:06:00,
2013-12-31 17:11:00,24.6,22.3,28.95,SSE,158,0.0,0.0,91,0.00,,,0.00,WUHU216HW,2014-01-01 02:11:00,
2013-12-31 17:16:00,24.6,22.3,28.95,SSE,158,0.0,0.0,91,0.00,,,0.00,WUHU216HW,2014-01-01 02:16:00,
2013-12-31 17:21:00,24.6,22.3,28.94,SSE,158,0.0,0.0,91,0.00,,,0.00,WUHU216HW,2014-01-01 02:21:00,
2013-12-31 17:26:00,24.6,22.3,28.94,SSE,158,0.0,0.0,91,0.00,,,0.00,WUHU216HW,2014-01-01 02:26:00,
2013-12-31 17:31:00,24.6,22.3,28.94,SSE,158,0.0,0.0,91,0.00,,,0.00,WUHU216HW,2014-01-01 02:31:00,
2013-12-31 17:36:00,24.6,22.3,28.94,SSE,158,0.0,0.0,91,0.00,,,0.00,WUHU216HW,2014-01-01 02:36:00,
2013-12-31 17:41:00,24.6,22.3,28.93,SSE,158,0.0,0.0,91,0.00,,,0.00,WUHU216HW,2014-01-01 02:41:00,
2013-12-31 17:46:00,24.6,22.3,28.93,SSE,158,0.0,0.0,91,0.00,,,0.00,WUHU216HW,2014-01-01 02:46:00,
2013-12-31 17:51:00,24.8,22.5,28.93,SSE,158,0.0,0.0,91,0.00,,,0.00,WUHU216HW,2014-01-01 02:51:00,
2013-12-31 17:56:00,24.8,22.5,28.93,SSE,158,0.0,0.0,91,0.00,,,0.00,WUHU216HW,2014-01-01 02:56:00,
2013-12-31 18:01:00,24.9,22.7,28.93,SSE,158,0.0,0.0,91,0.00,,,0.00,WUHU216HW,2014-01-01 03:01:00,
2013-12-31 18:06:00,24.9,22.7,28.92,SSE,158,0.0,0.0,91,0.00,,,0.00,WUHU216HW,2014-01-01 03:06:00,
2013-12-31 18:11:00,25.1,22.8,28.93,SSE,158,0.0,0.0,91,0.00,,,0.00,WUHU216HW,2014-01-01 03:11:00,
2013-12-31 18:16:00,25.1,22.8,28.92,SSE,158,0.0,0.0,91,0.00,,,0.00,WUHU216HW,2014-01-01 03:16:00,
2013-12-31 18:21:00,25.1,22.8,28.92,SSE,158,0.0,0.0,91,0.00,,,0.00,WUHU216HW,2014-01-01 03:21:00,
2013-12-31 18:26:00,25.1,22.8,28.92,SSE,158,0.0,0.0,91,0.00,,,0.00,WUHU216HW,2014-01-01 03:26:00,
2013-12-31 18:31:00,25.1,22.8,28.92,SSE,158,0.0,0.0,91,0.00,,,0.00,WUHU216HW,2014-01-01 03:31:00,
2013-12-31 18:36:00,25.1,22.8,28.91,SSE,158,0.0,0.0,91,0.00,,,0.00,WUHU216HW,2014-01-01 03:36:00,
2013-12-31 18:41:00,25.3,23.0,28.90,SSE,158,0.0,0.0,91,0.00,,,0.00,WUHU216HW,2014-01-01 03:41:00,
2013-12-31 18:46:00,25.1,22.8,28.90,SSE,158,0.0,0.0,91,0.00,,,0.00,WUHU216HW,2014-01-01 03:46:00,
2013-12-31 18:51:00,25.3,23.0,28.90,SSE,158,0.0,0.0,91,0.00,,,0.00,WUHU216HW,2014-01-01 03:51:00,
2013-12-31 18:56:00,25.3,23.0,28.89,SSE,158,0.0,0.0,91,0.00,,,0.00,WUHU216HW,2014-01-01 03:56:00,
2013-12-31 19:01:00,25.3,23.0,28.89,SSE,158,0.0,0.0,91,0.00,,,0.00,WUHU216HW,2014-01-01 04:01:00,
2013-12-31 19:06:00,25.5,23.2,28.88,SSE,158,0.0,0.0,91,0.00,,,0.00,WUHU216HW,2014-01-01 04:06:00,
2013-12-31 19:11:00,25.5,23.2,28.88,SSE,158,0.0,0.0,91,0.00,,,0.00,WUHU216HW,2014-01-01 04:11:00,
2013-12-31 19:16:00,25.8,23.6,28.88,SSE,158,0.0,0.0,91,0.00,,,0.00,WUHU216HW,2014-01-01 04:16:00,
2013-12-31 19:21:00,26.0,23.6,28.88,SSE,158,0.0,0.0,91,0.00,,,0.00,WUHU216HW,2014-01-01 04:21:00,
2013-12-31 19:26:00,26.2,24.2,28.88,SSE,158,0.0,0.0,92,0.00,,,0.00,WUHU216HW,2014-01-01 04:26:00,
2013-12-31 19:31:00,26.2,24.2,28.87,SSE,158,0.0,0.0,92,0.00,,,0.00,WUHU216HW,2014-01-01 04:31:00,
2013-12-31 19:36:00,26.2,24.2,28.86,SSE,158,0.0,0.0,92,0.00,,,0.00,WUHU216HW,2014-01-01 04:36:00,
2013-12-31 19:41:00,26.2,24.2,28.85,SSE,158,0.0,0.0,92,0.00,,,0.00,WUHU216HW,2014-01-01 04:41:00,
2013-12-31 19:46:00,26.4,24.4,28.86,SSE,158,0.0,0.0,92,0.00,,,0.00,WUHU216HW,2014-01-01 04:46:00,
2013-12-31 19:51:00,26.4,24.4,28.86,SSE,158,0.0,0.0,92,0.00,,,0.00,WUHU216HW,2014-01-01 04:51:00,
2013-12-31 19:56:00,26.6,24.5,28.85,SSE,158,0.0,0.0,92,0.00,,,0.00,WUHU216HW,2014-01-01 04:56:00,
2013-12-31 20:01:00,26.7,24.7,28.86,SSE,158,0.0,0.0,92,0.00,,,0.00,WUHU216HW,2014-01-01 05:01:00,
2013-12-31 20:06:00,26.9,24.9,28.85,SSE,158,0.0,0.0,92,0.00,,,0.00,WUHU216HW,2014-01-01 05:06:00,
2013-12-31 20:11:00,27.1,25.1,28.85,SSE,158,0.0,0.0,92,0.00,,,0.00,WUHU216HW,2014-01-01 05:11:00,
2013-12-31 20:16:00,27.1,25.1,28.85,SSE,158,0.0,0.0,92,0.00,,,0.00,WUHU216HW,2014-01-01 05:16:00,
2013-12-31 20:21:00,27.1,25.1,28.85,SSE,158,0.0,0.0,92,0.00,,,0.00,WUHU216HW,2014-01-01 05:21:00,
2013-12-31 20:26:00,27.1,25.1,28.85,SSE,158,0.0,0.0,92,0.00,,,0.00,WUHU216HW,2014-01-01 05:26:00,
2013-12-31 20:31:00,27.1,25.1,28.85,SSE,158,0.0,0.0,92,0.00,,,0.00,WUHU216HW,2014-01-01 05:31:00,
2013-12-31 20:36:00,27.1,25.1,28.85,SSE,158,0.0,0.0,92,0.00,,,0.00,WUHU216HW,2014-01-01 05:36:00,
2013-12-31 20:41:00,27.3,25.3,28.85,SSE,158,0.0,0.0,92,0.00,,,0.00,WUHU216HW,2014-01-01 05:41:00,
2013-12-31 20:46:00,27.5,25.4,28.84,SSE,158,0.0,0.0,92,0.00,,,0.00,WUHU216HW,2014-01-01 05:46:00,
2013-12-31 20:51:00,27.5,25.4,28.84,SSE,158,0.0,0.0,92,0.00,,,0.00,WUHU216HW,2014-01-01 05:51:00,
2013-12-31 20:56:00,27.5,25.4,28.84,SSE,158,0.0,0.0,92,0.00,,,0.00,WUHU216HW,2014-01-01 05:56:00,
2013-12-31 21:01:00,27.5,25.4,28.84,SSE,158,0.0,0.0,92,0.00,,,0.00,WUHU216HW,2014-01-01 06:01:00,
2013-12-31 21:06:00,27.5,25.4,28.84,SSE,158,0.0,0.0,92,0.00,,,0.00,WUHU216HW,2014-01-01 06:06:00,
2013-12-31 21:11:00,27.3,25.3,28.85,SSE,158,0.0,0.0,92,0.00,,,0.00,WUHU216HW,2014-01-01 06:11:00,
2013-12-31 21:14:00,27.3,25.3,28.85,SSE,158,0.0,0.0,92,0.00,,,0.00,WUHU216HW,2014-01-01 06:14:00,
2013-12-31 21:19:00,27.5,25.4,28.85,SSE,158,0.0,0.0,92,0.00,,,0.00,WUHU216HW,2014-01-01 06:19:00,
2013-12-31 21:24:00,27.5,25.4,28.85,SSE,158,0.0,0.0,92,0.00,,,0.00,WUHU216HW,2014-01-01 06:24:00,
2013-12-31 21:29:00,27.5,25.4,28.85,SSE,158,0.0,0.0,92,0.00,,,0.00,WUHU216HW,2014-01-01 06:29:00,
2013-12-31 21:34:00,27.5,25.4,28.85,SSE,158,0.0,0.0,92,0.00,,,0.00,WUHU216HW,2014-01-01 06:34:00,
2013-12-31 21:39:00,27.5,25.4,28.85,SSE,158,0.0,0.0,92,0.00,,,0.00,WUHU216HW,2014-01-01 06:39:00,
2013-12-31 21:44:00,27.5,25.4,28.85,SSE,158,0.0,0.0,92,0.00,,,0.00,WUHU216HW,2014-01-01 06:44:00,
2013-12-31 21:49:00,27.5,25.4,28.85,SSE,158,0.0,0.0,92,0.00,,,0.00,WUHU216HW,2014-01-01 06:49:00,
2013-12-31 21:54:00,27.3,25.3,28.84,SSE,158,0.0,0.0,92,0.00,,,0.00,WUHU216HW,2014-01-01 06:54:00,
2013-12-31 21:55:00,27.3,25.3,28.84,SSE,158,0.0,0.0,92,0.00,,,0.00,WUHU216HW,2014-01-01 06:55:00,
2013-12-31 22:00:00,27.3,25.3,28.84,SSE,158,0.0,0.0,92,0.00,,,0.00,WUHU216HW,2014-01-01 07:00:00,
2013-12-31 22:05:00,27.1,25.1,28.84,SSE,158,0.0,0.0,92,0.00,,,0.00,WUHU216HW,2014-01-01 07:05:00,
2013-12-31 22:10:00,26.9,24.9,28.84,SSE,158,0.0,0.0,92,0.00,,,0.00,WUHU216HW,2014-01-01 07:10:00,
2013-12-31 22:15:00,26.7,24.7,28.83,SSE,158,0.0,0.0,92,0.00,,,0.00,WUHU216HW,2014-01-01 07:15:00,
2013-12-31 22:20:00,26.7,24.7,28.83,SSE,158,0.0,0.0,92,0.00,,,0.00,WUHU216HW,2014-01-01 07:20:00,
2013-12-31 22:22:00,26.6,24.5,28.83,SSE,158,0.0,0.0,92,0.00,,,0.00,WUHU216HW,2014-01-01 07:22:00,
2013-12-31 22:27:00,26.4,24.4,28.83,SSE,158,0.0,0.0,92,0.00,,,0.00,WUHU216HW,2014-01-01 07:27:00,
2013-12-31 22:32:00,26.4,24.4,28.83,SSE,158,0.0,0.0,92,0.00,,,0.00,WUHU216HW,2014-01-01 07:32:00,
2013-12-31 22:37:00,26.2,24.2,28.82,SSE,158,0.0,0.0,92,0.00,,,0.00,WUHU216HW,2014-01-01 07:37:00,
2013-12-31 22:42:00,26.2,24.2,28.82,SSE,158,0.0,0.0,92,0.00,,,0.00,WUHU216HW,2014-01-01 07:42:00,
2013-12-31 22:47:00,26.2,24.2,28.83,SSE,158,0.0,0.0,92,0.00,,,0.00,WUHU216HW,2014-01-01 07:47:00,
2013-12-31 22:52:00,26.2,24.2,28.82,SSE,158,0.0,0.0,92,0.00,,,0.00,WUHU216HW,2014-01-01 07:52:00,
2013-12-31 22:57:00,26.2,24.2,28.82,SSE,158,0.0,0.0,92,0.00,,,0.00,WUHU216HW,2014-01-01 07:57:00,
2013-12-31 23:00:00,26.2,24.2,28.82,SSE,158,0.0,0.0,92,0.00,,,0.00,WUHU216HW,2014-01-01 08:00:00,
2013-12-31 23:05:00,26.2,24.2,28.82,SSE,158,0.0,0.0,92,0.00,,,0.00,WUHU216HW,2014-01-01 08:05:00,
2013-12-31 23:10:00,26.0,24.0,28.82,SSE,158,0.0,0.0,92,0.00,,,0.00,WUHU216HW,2014-01-01 08:10:00,
2013-12-31 23:15:00,25.8,23.6,28.82,SSE,158,0.0,0.0,91,0.00,,,0.00,WUHU216HW,2014-01-01 08:15:00,
2013-12-31 23:20:00,25.8,23.6,28.82,SSE,158,0.0,0.0,91,0.00,,,0.00,WUHU216HW,2014-01-01 08:20:00,
2013-12-31 23:25:00,25.8,23.6,28.82,SSE,158,0.0,0.0,91,0.00,,,0.00,WUHU216HW,2014-01-01 08:25:00,
2013-12-31 23:30:00,25.5,23.2,28.82,SSE,158,0.0,0.0,91,0.00,,,0.00,WUHU216HW,2014-01-01 08:30:00,
2013-12-31 23:35:00,25.5,23.2,28.81,SSE,158,0.0,0.0,91,0.00,,,0.00,WUHU216HW,2014-01-01 08:35:00,
2013-12-31 23:40:00,25.5,23.2,28.81,SSE,158,0.0,0.0,91,0.00,,,0.00,WUHU216HW,2014-01-01 08:40:00,
2013-12-31 23:45:00,25.3,23.0,28.82,SSE,158,0.0,0.0,91,0.00,,,0.00,WUHU216HW,2014-01-01 08:45:00,
2013-12-31 23:50:00,25.1,22.8,28.82,SSE,158,0.0,0.0,91,0.00,,,0.00,WUHU216HW,2014-01-01 08:50:00,
2013-12-31 23:55:00,24.9,22.7,28.82,SSE,158,0.0,0.0,91,0.00,,,0.00,WUHU216HW,2014-01-01 08:55:00,